sensor_id;sensor_type;location;lat;lon;timestamp;pressure;altitude;pressure_sealevel;temperature;humidity
62592;BME280;48659;41.622;2.276;2022-12-07T00:01:23;99729.28;;;7.30;60.38
62592;BME280;48659;41.622;2.276;2022-12-07T00:03:52;99724.34;;;8.27;58.11
62592;BME280;48659;41.622;2.276;2022-12-07T00:06:20;99727.93;;;6.37;63.85
62592;BME280;48659;41.622;2.276;2022-12-07T00:08:48;99721.97;;;7.77;60.11
62592;BME280;48659;41.622;2.276;2022-12-07T00:11:17;99714.72;;;8.20;58.38
62592;BME280;48659;41.622;2.276;2022-12-07T00:13:46;99710.29;;;8.41;58.21
62592;BME280;48659;41.622;2.276;2022-12-07T00:16:16;99709.62;;;7.56;59.73
62592;BME280;48659;41.622;2.276;2022-12-07T00:18:45;99709.53;;;6.54;63.04
62592;BME280;48659;41.622;2.276;2022-12-07T00:21:15;99706.53;;;7.60;60.07
62592;BME280;48659;41.622;2.276;2022-12-07T00:23:44;99704.98;;;7.77;60.13
62592;BME280;48659;41.622;2.276;2022-12-07T00:26:13;99703.61;;;8.34;58.27
62592;BME280;48659;41.622;2.276;2022-12-07T00:28:42;99701.30;;;8.55;57.60
62592;BME280;48659;41.622;2.276;2022-12-07T00:31:13;99702.21;;;8.09;58.10
62592;BME280;48659;41.622;2.276;2022-12-07T00:33:41;99701.38;;;7.81;59.87
62592;BME280;48659;41.622;2.276;2022-12-07T00:36:10;99702.79;;;7.76;60.21
62592;BME280;48659;41.622;2.276;2022-12-07T00:38:40;99701.55;;;7.26;61.08
62592;BME280;48659;41.622;2.276;2022-12-07T00:41:12;99704.62;;;6.82;62.19
62592;BME280;48659;41.622;2.276;2022-12-07T00:43:40;99697.05;;;8.26;59.01
62592;BME280;48659;41.622;2.276;2022-12-07T00:46:08;99693.94;;;8.17;57.91
62592;BME280;48659;41.622;2.276;2022-12-07T00:48:36;99696.05;;;8.63;56.83
62592;BME280;48659;41.622;2.276;2022-12-07T00:51:08;99695.84;;;8.84;56.35
62592;BME280;48659;41.622;2.276;2022-12-07T00:53:39;99693.46;;;9.32;55.57
62592;BME280;48659;41.622;2.276;2022-12-07T00:56:09;99691.61;;;9.53;55.44
62592;BME280;48659;41.622;2.276;2022-12-07T00:58:38;99689.83;;;9.17;55.27
62592;BME280;48659;41.622;2.276;2022-12-07T01:01:07;99685.34;;;9.48;55.01
62592;BME280;48659;41.622;2.276;2022-12-07T01:03:35;99685.24;;;8.17;56.90
62592;BME280;48659;41.622;2.276;2022-12-07T01:06:04;99682.71;;;7.28;59.23
62592;BME280;48659;41.622;2.276;2022-12-07T01:08:32;99683.12;;;8.06;57.76
62592;BME280;48659;41.622;2.276;2022-12-07T01:11:09;99685.28;;;6.97;60.76
62592;BME280;48659;41.622;2.276;2022-12-07T01:13:39;99692.03;;;4.84;66.43
62592;BME280;48659;41.622;2.276;2022-12-07T01:16:07;99688.05;;;5.41;66.96
62592;BME280;48659;41.622;2.276;2022-12-07T01:18:36;99687.14;;;5.46;67.14
62592;BME280;48659;41.622;2.276;2022-12-07T01:21:07;99685.92;;;5.61;68.73
62592;BME280;48659;41.622;2.276;2022-12-07T01:23:36;99682.47;;;5.64;68.51
62592;BME280;48659;41.622;2.276;2022-12-07T01:26:06;99681.63;;;5.88;67.71
62592;BME280;48659;41.622;2.276;2022-12-07T01:28:35;99686.65;;;5.57;70.59
62592;BME280;48659;41.622;2.276;2022-12-07T01:31:03;99685.57;;;5.49;70.31
62592;BME280;48659;41.622;2.276;2022-12-07T01:33:33;99683.86;;;6.88;66.32
62592;BME280;48659;41.622;2.276;2022-12-07T01:36:16;99684.22;;;6.18;67.85
62592;BME280;48659;41.622;2.276;2022-12-07T01:38:44;99686.12;;;6.11;68.66
62592;BME280;48659;41.622;2.276;2022-12-07T01:41:12;99691.29;;;6.90;68.95
62592;BME280;48659;41.622;2.276;2022-12-07T01:44:12;99692.92;;;7.44;65.71
62592;BME280;48659;41.622;2.276;2022-12-07T01:46:42;99690.49;;;8.86;61.99
62592;BME280;48659;41.622;2.276;2022-12-07T01:49:15;99686.21;;;8.94;60.95
62592;BME280;48659;41.622;2.276;2022-12-07T01:51:45;99682.45;;;8.45;63.29
62592;BME280;48659;41.622;2.276;2022-12-07T01:54:15;99684.59;;;8.64;62.38
62592;BME280;48659;41.622;2.276;2022-12-07T01:56:49;99686.49;;;8.25;62.94
62592;BME280;48659;41.622;2.276;2022-12-07T01:59:21;99686.64;;;7.93;64.35
62592;BME280;48659;41.622;2.276;2022-12-07T02:01:49;99688.42;;;8.50;64.17
62592;BME280;48659;41.622;2.276;2022-12-07T02:04:18;99689.98;;;8.01;64.03
62592;BME280;48659;41.622;2.276;2022-12-07T02:06:46;99689.67;;;8.27;63.91
62592;BME280;48659;41.622;2.276;2022-12-07T02:13:27;99697.51;;;8.78;62.70
62592;BME280;48659;41.622;2.276;2022-12-07T02:16:09;99697.96;;;9.25;61.80
62592;BME280;48659;41.622;2.276;2022-12-07T02:18:52;99702.21;;;6.94;69.44
62592;BME280;48659;41.622;2.276;2022-12-07T02:21:31;99696.91;;;8.10;64.97
62592;BME280;48659;41.622;2.276;2022-12-07T02:24:18;99698.73;;;7.84;64.91
62592;BME280;48659;41.622;2.276;2022-12-07T02:27:09;99704.47;;;7.92;65.37
62592;BME280;48659;41.622;2.276;2022-12-07T02:29:55;99707.70;;;8.80;63.64
62592;BME280;48659;41.622;2.276;2022-12-07T02:32:27;99704.99;;;8.24;65.77
62592;BME280;48659;41.622;2.276;2022-12-07T02:35:01;99706.17;;;8.07;66.19
62592;BME280;48659;41.622;2.276;2022-12-07T02:37:39;99712.63;;;6.34;72.61
62592;BME280;48659;41.622;2.276;2022-12-07T02:40:17;99712.60;;;5.40;75.90
62592;BME280;48659;41.622;2.276;2022-12-07T02:42:49;99717.08;;;5.54;77.88
62592;BME280;48659;41.622;2.276;2022-12-07T02:45:21;99709.86;;;5.48;78.94
62592;BME280;48659;41.622;2.276;2022-12-07T02:47:53;99706.14;;;6.72;74.17
62592;BME280;48659;41.622;2.276;2022-12-07T02:50:22;99708.98;;;5.58;77.92
62592;BME280;48659;41.622;2.276;2022-12-07T02:52:49;99706.76;;;5.58;76.11
62592;BME280;48659;41.622;2.276;2022-12-07T02:55:21;99703.10;;;8.03;69.72
62592;BME280;48659;41.622;2.276;2022-12-07T02:58:33;99701.66;;;8.38;66.43
62592;BME280;48659;41.622;2.276;2022-12-07T03:01:15;99700.12;;;7.46;67.96
62592;BME280;48659;41.622;2.276;2022-12-07T03:03:55;99707.74;;;7.83;66.68
62592;BME280;48659;41.622;2.276;2022-12-07T03:06:30;99708.70;;;7.61;67.58
62592;BME280;48659;41.622;2.276;2022-12-07T03:09:13;99710.90;;;8.70;64.40
62592;BME280;48659;41.622;2.276;2022-12-07T03:11:47;99710.74;;;5.81;72.27
62592;BME280;48659;41.622;2.276;2022-12-07T03:14:24;99709.01;;;7.01;70.76
62592;BME280;48659;41.622;2.276;2022-12-07T03:16:58;99711.77;;;6.02;72.42
62592;BME280;48659;41.622;2.276;2022-12-07T03:19:31;99714.44;;;5.97;76.46
62592;BME280;48659;41.622;2.276;2022-12-07T03:22:10;99716.82;;;6.14;75.27
62592;BME280;48659;41.622;2.276;2022-12-07T03:24:43;99714.02;;;6.29;73.27
62592;BME280;48659;41.622;2.276;2022-12-07T03:27:18;99714.25;;;5.77;74.93
62592;BME280;48659;41.622;2.276;2022-12-07T03:29:50;99708.80;;;5.74;73.58
62592;BME280;48659;41.622;2.276;2022-12-07T03:32:25;99706.42;;;5.85;74.80
62592;BME280;48659;41.622;2.276;2022-12-07T03:35:01;99702.27;;;5.96;72.42
62592;BME280;48659;41.622;2.276;2022-12-07T03:37:36;99699.51;;;5.51;76.33
62592;BME280;48659;41.622;2.276;2022-12-07T03:40:11;99696.09;;;5.28;75.68
62592;BME280;48659;41.622;2.276;2022-12-07T03:42:40;99686.97;;;6.34;73.68
62592;BME280;48659;41.622;2.276;2022-12-07T03:45:11;99685.21;;;5.88;73.33
62592;BME280;48659;41.622;2.276;2022-12-07T03:47:47;99685.96;;;6.04;72.68
62592;BME280;48659;41.622;2.276;2022-12-07T03:50:33;99680.86;;;7.26;67.65
62592;BME280;48659;41.622;2.276;2022-12-07T03:53:10;99676.10;;;7.85;65.67
62592;BME280;48659;41.622;2.276;2022-12-07T03:55:46;99672.87;;;8.03;65.14
62592;BME280;48659;41.622;2.276;2022-12-07T03:58:20;99671.49;;;7.68;65.55
62592;BME280;48659;41.622;2.276;2022-12-07T04:00:49;99669.44;;;7.24;66.45
62592;BME280;48659;41.622;2.276;2022-12-07T04:03:20;99664.86;;;7.57;64.95
62592;BME280;48659;41.622;2.276;2022-12-07T04:05:48;99667.18;;;7.10;65.98
62592;BME280;48659;41.622;2.276;2022-12-07T04:08:17;99667.06;;;6.74;64.87
62592;BME280;48659;41.622;2.276;2022-12-07T04:10:45;99667.80;;;5.17;71.29
62592;BME280;48659;41.622;2.276;2022-12-07T04:13:16;99667.37;;;5.35;69.99
62592;BME280;48659;41.622;2.276;2022-12-07T04:15:44;99666.27;;;6.07;70.62
62592;BME280;48659;41.622;2.276;2022-12-07T04:18:12;99663.11;;;5.38;70.25
62592;BME280;48659;41.622;2.276;2022-12-07T04:20:39;99664.93;;;4.74;70.83
62592;BME280;48659;41.622;2.276;2022-12-07T04:23:06;99671.46;;;3.59;74.39
62592;BME280;48659;41.622;2.276;2022-12-07T04:25:33;99662.71;;;5.83;72.52
62592;BME280;48659;41.622;2.276;2022-12-07T04:28:01;99661.85;;;6.67;67.00
62592;BME280;48659;41.622;2.276;2022-12-07T04:30:32;99665.00;;;5.47;69.18
62592;BME280;48659;41.622;2.276;2022-12-07T04:32:59;99665.77;;;4.53;71.69
62592;BME280;48659;41.622;2.276;2022-12-07T04:35:32;99666.80;;;3.91;74.23
62592;BME280;48659;41.622;2.276;2022-12-07T04:38:07;99659.63;;;5.15;72.19
62592;BME280;48659;41.622;2.276;2022-12-07T04:40:35;99654.01;;;5.82;68.04
62592;BME280;48659;41.622;2.276;2022-12-07T04:43:05;99652.72;;;6.27;66.95
62592;BME280;48659;41.622;2.276;2022-12-07T04:45:32;99647.94;;;6.84;64.56
62592;BME280;48659;41.622;2.276;2022-12-07T04:48:02;99648.73;;;5.38;68.34
62592;BME280;48659;41.622;2.276;2022-12-07T04:50:38;99646.25;;;5.25;70.55
62592;BME280;48659;41.622;2.276;2022-12-07T04:53:09;99644.35;;;4.41;71.87
62592;BME280;48659;41.622;2.276;2022-12-07T04:55:36;99636.05;;;6.24;67.38
62592;BME280;48659;41.622;2.276;2022-12-07T04:58:03;99635.31;;;5.55;67.58
62592;BME280;48659;41.622;2.276;2022-12-07T05:00:33;99632.10;;;6.32;66.12
62592;BME280;48659;41.622;2.276;2022-12-07T05:03:06;99637.12;;;6.18;65.43
62592;BME280;48659;41.622;2.276;2022-12-07T05:05:39;99633.68;;;6.76;63.57
62592;BME280;48659;41.622;2.276;2022-12-07T05:08:07;99634.02;;;6.99;62.48
62592;BME280;48659;41.622;2.276;2022-12-07T05:10:43;99638.41;;;7.25;62.61
62592;BME280;48659;41.622;2.276;2022-12-07T05:13:13;99637.25;;;6.51;62.68
62592;BME280;48659;41.622;2.276;2022-12-07T05:15:44;99637.95;;;6.85;62.08
62592;BME280;48659;41.622;2.276;2022-12-07T05:18:13;99638.11;;;6.50;62.10
62592;BME280;48659;41.622;2.276;2022-12-07T05:20:42;99645.02;;;7.38;61.47
62592;BME280;48659;41.622;2.276;2022-12-07T05:23:28;99644.89;;;6.91;61.98
62592;BME280;48659;41.622;2.276;2022-12-07T05:25:56;99650.15;;;7.35;60.91
62592;BME280;48659;41.622;2.276;2022-12-07T05:28:24;99650.29;;;7.14;60.66
62592;BME280;48659;41.622;2.276;2022-12-07T05:30:51;99649.98;;;7.22;61.02
62592;BME280;48659;41.622;2.276;2022-12-07T05:33:19;99652.97;;;7.20;60.03
62592;BME280;48659;41.622;2.276;2022-12-07T05:35:47;99650.94;;;7.78;59.63
62592;BME280;48659;41.622;2.276;2022-12-07T05:38:15;99652.11;;;7.87;58.94
62592;BME280;48659;41.622;2.276;2022-12-07T05:40:44;99653.73;;;8.25;58.27
62592;BME280;48659;41.622;2.276;2022-12-07T05:43:15;99657.50;;;7.65;59.00
62592;BME280;48659;41.622;2.276;2022-12-07T05:45:44;99653.66;;;7.62;58.11
62592;BME280;48659;41.622;2.276;2022-12-07T05:48:11;99655.16;;;7.96;57.28
62592;BME280;48659;41.622;2.276;2022-12-07T05:50:40;99655.30;;;7.89;59.10
62592;BME280;48659;41.622;2.276;2022-12-07T05:53:15;99663.44;;;6.30;60.65
62592;BME280;48659;41.622;2.276;2022-12-07T05:55:44;99668.36;;;5.87;62.94
62592;BME280;48659;41.622;2.276;2022-12-07T05:58:12;99669.05;;;6.56;61.00
62592;BME280;48659;41.622;2.276;2022-12-07T06:00:39;99666.41;;;7.55;59.05
62592;BME280;48659;41.622;2.276;2022-12-07T06:03:07;99666.75;;;7.24;59.23
62592;BME280;48659;41.622;2.276;2022-12-07T06:05:34;99666.98;;;8.04;58.38
62592;BME280;48659;41.622;2.276;2022-12-07T06:08:03;99669.07;;;7.52;60.21
62592;BME280;48659;41.622;2.276;2022-12-07T06:10:31;99669.06;;;7.75;59.24
62592;BME280;48659;41.622;2.276;2022-12-07T06:13:00;99670.80;;;8.04;59.09
62592;BME280;48659;41.622;2.276;2022-12-07T06:15:28;99674.80;;;7.38;61.13
62592;BME280;48659;41.622;2.276;2022-12-07T06:17:55;99675.39;;;7.74;59.40
62592;BME280;48659;41.622;2.276;2022-12-07T06:20:34;99681.99;;;6.65;60.35
62592;BME280;48659;41.622;2.276;2022-12-07T06:23:02;99683.50;;;7.28;58.55
62592;BME280;48659;41.622;2.276;2022-12-07T06:25:29;99684.44;;;7.37;59.31
62592;BME280;48659;41.622;2.276;2022-12-07T06:28:04;99684.14;;;6.58;60.35
62592;BME280;48659;41.622;2.276;2022-12-07T06:30:36;99690.44;;;6.79;59.99
62592;BME280;48659;41.622;2.276;2022-12-07T06:33:15;99687.88;;;6.87;59.75
62592;BME280;48659;41.622;2.276;2022-12-07T06:35:47;99689.54;;;6.67;59.66
62592;BME280;48659;41.622;2.276;2022-12-07T06:38:15;99692.85;;;6.06;61.17
62592;BME280;48659;41.622;2.276;2022-12-07T06:40:42;99695.89;;;6.52;60.43
62592;BME280;48659;41.622;2.276;2022-12-07T06:43:12;99697.16;;;5.69;61.75
62592;BME280;48659;41.622;2.276;2022-12-07T06:45:40;99697.43;;;6.73;59.87
62592;BME280;48659;41.622;2.276;2022-12-07T06:48:29;99698.66;;;7.78;58.30
62592;BME280;48659;41.622;2.276;2022-12-07T06:50:58;99696.34;;;6.91;58.07
62592;BME280;48659;41.622;2.276;2022-12-07T06:53:25;99695.09;;;6.85;58.28
62592;BME280;48659;41.622;2.276;2022-12-07T06:55:52;99693.44;;;6.56;59.44
62592;BME280;48659;41.622;2.276;2022-12-07T06:58:23;99694.02;;;6.88;59.02
62592;BME280;48659;41.622;2.276;2022-12-07T07:00:52;99690.52;;;6.54;59.17
62592;BME280;48659;41.622;2.276;2022-12-07T07:03:20;99690.55;;;6.45;59.48
62592;BME280;48659;41.622;2.276;2022-12-07T07:05:47;99699.60;;;3.71;65.50
62592;BME280;48659;41.622;2.276;2022-12-07T07:08:15;99696.73;;;5.40;63.62
62592;BME280;48659;41.622;2.276;2022-12-07T07:10:43;99691.92;;;6.41;61.21
62592;BME280;48659;41.622;2.276;2022-12-07T07:13:14;99693.98;;;6.63;59.82
62592;BME280;48659;41.622;2.276;2022-12-07T07:15:42;99688.48;;;6.56;59.54
62592;BME280;48659;41.622;2.276;2022-12-07T07:18:15;99684.33;;;6.34;59.43
62592;BME280;48659;41.622;2.276;2022-12-07T07:20:45;99682.43;;;6.82;59.78
62592;BME280;48659;41.622;2.276;2022-12-07T07:23:21;99685.02;;;6.60;58.20
62592;BME280;48659;41.622;2.276;2022-12-07T07:25:49;99680.28;;;6.90;57.46
62592;BME280;48659;41.622;2.276;2022-12-07T07:28:17;99678.26;;;7.30;57.01
62592;BME280;48659;41.622;2.276;2022-12-07T07:30:45;99682.46;;;7.20;57.54
62592;BME280;48659;41.622;2.276;2022-12-07T07:33:13;99680.07;;;7.94;55.86
62592;BME280;48659;41.622;2.276;2022-12-07T07:35:43;99690.33;;;7.45;56.70
62592;BME280;48659;41.622;2.276;2022-12-07T07:38:13;99698.65;;;6.74;58.16
62592;BME280;48659;41.622;2.276;2022-12-07T07:40:40;99699.24;;;7.14;57.73
62592;BME280;48659;41.622;2.276;2022-12-07T07:43:09;99702.06;;;6.61;58.67
62592;BME280;48659;41.622;2.276;2022-12-07T07:45:36;99708.55;;;6.93;58.92
62592;BME280;48659;41.622;2.276;2022-12-07T07:48:04;99708.44;;;6.84;59.52
62592;BME280;48659;41.622;2.276;2022-12-07T07:50:31;99706.85;;;7.02;59.08
62592;BME280;48659;41.622;2.276;2022-12-07T07:53:05;99705.21;;;6.36;60.81
62592;BME280;48659;41.622;2.276;2022-12-07T07:55:58;99707.28;;;6.64;60.47
62592;BME280;48659;41.622;2.276;2022-12-07T07:58:51;99705.75;;;6.75;60.16
62592;BME280;48659;41.622;2.276;2022-12-07T08:01:20;99703.85;;;6.93;59.71
62592;BME280;48659;41.622;2.276;2022-12-07T08:03:58;99705.13;;;7.09;59.17
62592;BME280;48659;41.622;2.276;2022-12-07T08:06:26;99703.49;;;6.75;59.28
62592;BME280;48659;41.622;2.276;2022-12-07T08:08:54;99705.42;;;6.66;59.90
62592;BME280;48659;41.622;2.276;2022-12-07T08:11:22;99700.39;;;6.98;58.98
62592;BME280;48659;41.622;2.276;2022-12-07T08:13:49;99692.23;;;7.30;57.82
62592;BME280;48659;41.622;2.276;2022-12-07T08:16:17;99695.57;;;7.73;56.73
62592;BME280;48659;41.622;2.276;2022-12-07T08:18:44;99695.16;;;7.38;57.25
62592;BME280;48659;41.622;2.276;2022-12-07T08:21:17;99697.42;;;7.54;57.14
62592;BME280;48659;41.622;2.276;2022-12-07T08:23:45;99696.17;;;7.85;56.50
62592;BME280;48659;41.622;2.276;2022-12-07T08:26:14;99696.50;;;7.47;57.22
62592;BME280;48659;41.622;2.276;2022-12-07T08:28:42;99699.75;;;7.95;57.74
62592;BME280;48659;41.622;2.276;2022-12-07T08:31:14;99701.49;;;8.16;57.78
62592;BME280;48659;41.622;2.276;2022-12-07T08:33:44;99701.54;;;7.90;57.15
62592;BME280;48659;41.622;2.276;2022-12-07T08:36:12;99697.01;;;8.12;56.75
62592;BME280;48659;41.622;2.276;2022-12-07T08:38:42;99697.98;;;8.36;55.98
62592;BME280;48659;41.622;2.276;2022-12-07T08:41:10;99696.50;;;8.26;56.16
62592;BME280;48659;41.622;2.276;2022-12-07T08:44:48;99695.82;;;9.32;55.34
62592;BME280;48659;41.622;2.276;2022-12-07T08:47:19;99688.86;;;8.63;56.65
62592;BME280;48659;41.622;2.276;2022-12-07T08:49:48;99684.13;;;8.75;55.15
62592;BME280;48659;41.622;2.276;2022-12-07T08:52:18;99682.96;;;8.59;55.73
62592;BME280;48659;41.622;2.276;2022-12-07T08:54:47;99684.95;;;6.49;61.65
62592;BME280;48659;41.622;2.276;2022-12-07T08:57:15;99681.07;;;8.09;58.51
62592;BME280;48659;41.622;2.276;2022-12-07T08:59:57;99680.33;;;9.01;55.44
62592;BME280;48659;41.622;2.276;2022-12-07T09:02:25;99675.53;;;9.81;53.78
62592;BME280;48659;41.622;2.276;2022-12-07T09:04:53;99677.02;;;9.88;53.34
62592;BME280;48659;41.622;2.276;2022-12-07T09:07:24;99678.43;;;10.52;52.24
62592;BME280;48659;41.622;2.276;2022-12-07T09:09:58;99683.58;;;10.65;52.50
62592;BME280;48659;41.622;2.276;2022-12-07T09:12:27;99684.35;;;10.37;51.98
62592;BME280;48659;41.622;2.276;2022-12-07T09:15:08;99685.81;;;10.50;52.61
62592;BME280;48659;41.622;2.276;2022-12-07T09:17:36;99690.96;;;10.74;51.47
62592;BME280;48659;41.622;2.276;2022-12-07T09:20:11;99694.88;;;11.17;50.64
62592;BME280;48659;41.622;2.276;2022-12-07T09:22:44;99690.72;;;11.19;50.56
62592;BME280;48659;41.622;2.276;2022-12-07T09:25:16;99693.83;;;10.92;50.75
62592;BME280;48659;41.622;2.276;2022-12-07T09:27:43;99693.58;;;11.22;50.22
62592;BME280;48659;41.622;2.276;2022-12-07T09:30:21;99691.56;;;10.29;51.86
62592;BME280;48659;41.622;2.276;2022-12-07T09:32:54;99695.99;;;10.95;51.49
62592;BME280;48659;41.622;2.276;2022-12-07T09:35:24;99695.55;;;11.48;50.46
62592;BME280;48659;41.622;2.276;2022-12-07T09:37:52;99696.39;;;11.59;50.53
62592;BME280;48659;41.622;2.276;2022-12-07T09:40:46;99700.19;;;11.70;50.97
62592;BME280;48659;41.622;2.276;2022-12-07T09:43:21;99700.44;;;11.68;50.17
62592;BME280;48659;41.622;2.276;2022-12-07T09:45:55;99704.06;;;11.40;51.16
62592;BME280;48659;41.622;2.276;2022-12-07T09:48:30;99705.44;;;11.08;51.06
62592;BME280;48659;41.622;2.276;2022-12-07T09:51:01;99707.16;;;11.22;51.31
62592;BME280;48659;41.622;2.276;2022-12-07T09:53:32;99705.83;;;11.31;50.81
62592;BME280;48659;41.622;2.276;2022-12-07T09:56:22;99704.79;;;11.89;49.62
62592;BME280;48659;41.622;2.276;2022-12-07T09:58:57;99705.62;;;11.72;50.23
62592;BME280;48659;41.622;2.276;2022-12-07T10:01:30;99699.86;;;12.07;49.33
62592;BME280;48659;41.622;2.276;2022-12-07T10:04:10;99705.37;;;11.63;50.01
62592;BME280;48659;41.622;2.276;2022-12-07T10:06:39;99705.60;;;11.87;49.99
62592;BME280;48659;41.622;2.276;2022-12-07T10:09:11;99699.65;;;11.97;49.33
62592;BME280;48659;41.622;2.276;2022-12-07T10:12:15;99703.85;;;12.37;49.72
62592;BME280;48659;41.622;2.276;2022-12-07T10:14:56;99703.01;;;12.32;49.36
62592;BME280;48659;41.622;2.276;2022-12-07T10:17:47;99704.13;;;12.44;48.87
62592;BME280;48659;41.622;2.276;2022-12-07T10:20:46;99696.89;;;12.80;49.40
62592;BME280;48659;41.622;2.276;2022-12-07T10:23:15;99695.03;;;12.53;50.10
62592;BME280;48659;41.622;2.276;2022-12-07T10:25:45;99691.93;;;12.90;49.68
62592;BME280;48659;41.622;2.276;2022-12-07T10:28:15;99687.55;;;12.69;49.23
62592;BME280;48659;41.622;2.276;2022-12-07T10:30:50;99681.95;;;13.01;49.07
62592;BME280;48659;41.622;2.276;2022-12-07T10:33:37;99677.48;;;13.27;48.12
62592;BME280;48659;41.622;2.276;2022-12-07T10:36:22;99673.77;;;13.47;48.67
62592;BME280;48659;41.622;2.276;2022-12-07T10:38:51;99670.14;;;12.82;48.24
62592;BME280;48659;41.622;2.276;2022-12-07T10:41:19;99665.16;;;13.55;47.65
62592;BME280;48659;41.622;2.276;2022-12-07T10:43:51;99667.51;;;13.36;47.94
62592;BME280;48659;41.622;2.276;2022-12-07T10:47:35;99664.17;;;13.73;47.49
62592;BME280;48659;41.622;2.276;2022-12-07T10:50:27;99659.12;;;13.50;47.27
62592;BME280;48659;41.622;2.276;2022-12-07T10:53:27;99656.13;;;13.29;47.07
62592;BME280;48659;41.622;2.276;2022-12-07T10:56:19;99652.94;;;14.08;46.94
62592;BME280;48659;41.622;2.276;2022-12-07T10:59:39;99650.25;;;13.98;46.24
62592;BME280;48659;41.622;2.276;2022-12-07T11:02:26;99644.19;;;14.13;46.56
62592;BME280;48659;41.622;2.276;2022-12-07T11:05:36;99648.00;;;14.05;46.61
62592;BME280;48659;41.622;2.276;2022-12-07T11:08:16;99641.88;;;13.78;47.23
62592;BME280;48659;41.622;2.276;2022-12-07T11:10:54;99636.02;;;14.36;45.62
62592;BME280;48659;41.622;2.276;2022-12-07T11:13:27;99634.66;;;14.11;46.51
62592;BME280;48659;41.622;2.276;2022-12-07T11:16:48;99633.83;;;14.38;46.07
62592;BME280;48659;41.622;2.276;2022-12-07T11:19:43;99628.40;;;14.08;46.06
62592;BME280;48659;41.622;2.276;2022-12-07T11:22:29;99628.84;;;13.57;47.18
62592;BME280;48659;41.622;2.276;2022-12-07T11:25:17;99620.35;;;14.19;46.52
62592;BME280;48659;41.622;2.276;2022-12-07T11:27:51;99619.17;;;13.96;47.60
62592;BME280;48659;41.622;2.276;2022-12-07T11:30:26;99611.90;;;13.30;47.26
62592;BME280;48659;41.622;2.276;2022-12-07T11:33:06;99602.67;;;14.24;46.59
62592;BME280;48659;41.622;2.276;2022-12-07T11:36:31;99600.38;;;14.23;46.71
62592;BME280;48659;41.622;2.276;2022-12-07T11:39:03;99593.24;;;14.15;46.07
62592;BME280;48659;41.622;2.276;2022-12-07T11:41:35;99593.79;;;14.26;46.37
62592;BME280;48659;41.622;2.276;2022-12-07T11:44:17;99590.48;;;13.76;48.06
62592;BME280;48659;41.622;2.276;2022-12-07T11:46:58;99585.36;;;14.60;46.47
62592;BME280;48659;41.622;2.276;2022-12-07T11:49:41;99584.19;;;14.43;45.79
62592;BME280;48659;41.622;2.276;2022-12-07T11:52:18;99579.95;;;14.62;45.25
62592;BME280;48659;41.622;2.276;2022-12-07T11:54:50;99578.59;;;14.98;44.99
62592;BME280;48659;41.622;2.276;2022-12-07T11:57:28;99579.08;;;15.45;45.14
62592;BME280;48659;41.622;2.276;2022-12-07T12:00:20;99570.18;;;15.20;45.11
62592;BME280;48659;41.622;2.276;2022-12-07T12:03:15;99567.28;;;14.57;45.20
62592;BME280;48659;41.622;2.276;2022-12-07T12:05:44;99559.60;;;15.07;43.84
62592;BME280;48659;41.622;2.276;2022-12-07T12:08:14;99552.21;;;15.55;43.62
62592;BME280;48659;41.622;2.276;2022-12-07T12:10:55;99548.00;;;15.10;44.97
62592;BME280;48659;41.622;2.276;2022-12-07T12:14:09;99544.82;;;15.58;43.73
62592;BME280;48659;41.622;2.276;2022-12-07T12:16:52;99542.67;;;15.48;43.33
62592;BME280;48659;41.622;2.276;2022-12-07T12:19:55;99546.27;;;14.00;45.58
62592;BME280;48659;41.622;2.276;2022-12-07T12:22:33;99539.24;;;15.42;43.75
62592;BME280;48659;41.622;2.276;2022-12-07T12:25:05;99535.82;;;16.08;42.73
62592;BME280;48659;41.622;2.276;2022-12-07T12:27:34;99532.72;;;15.40;43.79
62592;BME280;48659;41.622;2.276;2022-12-07T12:31:40;99522.99;;;16.35;42.86
62592;BME280;48659;41.622;2.276;2022-12-07T12:35:21;99518.47;;;15.90;42.93
62592;BME280;48659;41.622;2.276;2022-12-07T12:37:52;99505.44;;;15.62;43.49
62592;BME280;48659;41.622;2.276;2022-12-07T12:40:44;99499.04;;;15.68;44.02
62592;BME280;48659;41.622;2.276;2022-12-07T12:43:48;99497.81;;;15.65;43.20
62592;BME280;48659;41.622;2.276;2022-12-07T12:49:40;99492.56;;;15.21;45.64
62592;BME280;48659;41.622;2.276;2022-12-07T12:53:23;99491.07;;;14.16;45.73
62592;BME280;48659;41.622;2.276;2022-12-07T12:56:58;99480.62;;;15.58;43.87
62592;BME280;48659;41.622;2.276;2022-12-07T12:59:28;99477.04;;;16.23;45.02
62592;BME280;48659;41.622;2.276;2022-12-07T13:02:14;99473.55;;;16.14;43.43
62592;BME280;48659;41.622;2.276;2022-12-07T13:05:43;99469.14;;;16.02;43.48
62592;BME280;48659;41.622;2.276;2022-12-07T13:08:18;99464.79;;;16.33;42.76
62592;BME280;48659;41.622;2.276;2022-12-07T13:10:49;99464.68;;;16.43;42.93
62592;BME280;48659;41.622;2.276;2022-12-07T13:13:33;99467.32;;;16.21;43.30
62592;BME280;48659;41.622;2.276;2022-12-07T13:16:49;99466.37;;;16.56;42.82
62592;BME280;48659;41.622;2.276;2022-12-07T13:20:05;99464.95;;;16.15;44.14
62592;BME280;48659;41.622;2.276;2022-12-07T13:22:48;99459.97;;;16.43;44.27
62592;BME280;48659;41.622;2.276;2022-12-07T13:25:23;99456.23;;;16.41;43.06
62592;BME280;48659;41.622;2.276;2022-12-07T13:28:45;99450.57;;;16.02;43.31
62592;BME280;48659;41.622;2.276;2022-12-07T13:31:20;99444.94;;;16.28;43.43
62592;BME280;48659;41.622;2.276;2022-12-07T13:33:50;99443.45;;;15.93;44.60
62592;BME280;48659;41.622;2.276;2022-12-07T13:36:21;99437.01;;;16.93;44.97
62592;BME280;48659;41.622;2.276;2022-12-07T13:38:52;99431.88;;;16.81;43.42
62592;BME280;48659;41.622;2.276;2022-12-07T13:41:33;99437.21;;;16.72;43.20
62592;BME280;48659;41.622;2.276;2022-12-07T13:44:10;99437.32;;;16.21;42.86
62592;BME280;48659;41.622;2.276;2022-12-07T13:46:46;99428.56;;;17.04;42.46
62592;BME280;48659;41.622;2.276;2022-12-07T13:49:20;99426.21;;;16.81;42.38
62592;BME280;48659;41.622;2.276;2022-12-07T13:51:48;99422.62;;;16.86;41.96
62592;BME280;48659;41.622;2.276;2022-12-07T13:54:22;99420.25;;;17.01;42.94
62592;BME280;48659;41.622;2.276;2022-12-07T13:56:54;99414.06;;;16.95;43.95
62592;BME280;48659;41.622;2.276;2022-12-07T13:59:28;99412.93;;;17.06;42.53
62592;BME280;48659;41.622;2.276;2022-12-07T14:02:55;99411.52;;;17.05;42.93